Time;durP1;ratioP1;P1;durP2;ratioP2;P2;SDS_P1;SDS_P2;PMS_P1;PMS_P2;Temp;Humidity;BMP_temperature;BMP_pressure;BME280_temperature;BME280_humidity;BME280_pressure;Samples;Min_cycle;Max_cycle;Signal;HPM_P1;HPM_P2
2023/07/20 00:00:46;;;;;;;8.90;6.10;;;;;;;19.16;51.66;99712.98;111118;1255;21953;-78
2023/07/20 00:03:43;;;;;;;10.00;4.30;;;;;;;19.17;51.72;99716.61;111175;1255;21957;-78
2023/07/20 00:06:16;;;;;;;9.90;5.20;;;;;;;19.13;51.76;99718.34;110901;1255;21952;-77
2023/07/20 00:09:03;;;;;;;8.70;5.30;;;;;;;19.10;52.10;99722.13;111164;1255;21950;-78
2023/07/20 00:12:00;;;;;;;9.50;4.70;;;;;;;19.08;52.07;99721.89;111198;1255;21954;-77
2023/07/20 00:14:34;;;;;;;7.90;4.50;;;;;;;19.04;52.14;99724.17;110853;1255;22609;-76
2023/07/20 00:17:10;;;;;;;8.40;3.70;;;;;;;19.02;52.23;99724.40;110991;1255;23577;-77
2023/07/20 00:19:49;;;;;;;6.00;3.90;;;;;;;18.98;52.34;99721.91;111292;1255;22044;-78
2023/07/20 00:22:21;;;;;;;6.70;3.80;;;;;;;18.97;52.41;99725.98;111126;1252;22952;-75
2023/07/20 00:25:02;;;;;;;11.30;4.10;;;;;;;19.02;52.38;99735.36;110955;1255;21971;-75
2023/07/20 00:27:38;;;;;;;6.10;3.60;;;;;;;19.03;52.47;99743.73;110531;1260;21970;-77
2023/07/20 00:30:11;;;;;;;5.90;3.30;;;;;;;19.03;52.45;99751.08;110790;1260;21977;-76
2023/07/20 00:32:46;;;;;;;6.40;3.10;;;;;;;19.06;52.71;99757.90;110335;1265;21977;-78
2023/07/20 00:35:18;;;;;;;4.80;3.10;;;;;;;19.11;52.83;99761.01;110318;1265;23070;-78
2023/07/20 00:37:57;;;;;;;7.60;3.40;;;;;;;19.16;52.81;99769.77;110211;1265;21969;-78
2023/07/20 00:40:46;;;;;;;8.50;4.10;;;;;;;19.18;52.68;99767.33;110363;1265;23031;-77
2023/07/20 00:43:19;;;;;;;12.10;4.80;;;;;;;19.20;52.61;99767.29;109954;1265;21982;-77
2023/07/20 00:45:51;;;;;;;4.60;3.70;;;;;;;19.22;52.65;99775.60;110414;1260;23074;-76
2023/07/20 00:48:26;;;;;;;5.90;3.10;;;;;;;19.23;52.62;99776.25;110820;1260;24148;-77
2023/07/20 00:51:04;;;;;;;5.60;3.20;;;;;;;19.26;52.75;99782.88;110613;1260;23798;-77
2023/07/20 00:53:49;;;;;;;6.70;3.20;;;;;;;19.22;52.98;99777.20;110730;1260;21972;-75
2023/07/20 00:56:31;;;;;;;5.30;3.70;;;;;;;19.24;53.04;99786.02;110730;1260;21995;-75
2023/07/20 00:59:11;;;;;;;7.50;3.00;;;;;;;19.21;53.43;99783.45;110103;1266;21995;-77
2023/07/20 01:01:47;;;;;;;7.90;3.80;;;;;;;19.24;53.68;99775.50;109344;1272;22147;-76
2023/07/20 01:04:42;;;;;;;5.60;3.40;;;;;;;19.24;53.89;99767.38;109477;1272;22204;-77
2023/07/20 01:07:21;;;;;;;6.10;3.10;;;;;;;19.22;54.13;99756.74;109524;1268;21970;-77
2023/07/20 01:10:53;;;;;;;9.40;3.80;;;;;;;19.12;54.24;99746.95;109491;1267;22090;-77
2023/07/20 01:13:29;;;;;;;7.40;3.20;;;;;;;18.93;54.97;99732.13;109660;1272;21979;-76
2023/07/20 01:16:09;;;;;;;8.00;3.80;;;;;;;18.82;55.58;99727.09;109370;1272;21997;-77
2023/07/20 01:18:45;;;;;;;7.10;3.40;;;;;;;18.75;56.20;99730.75;109815;1268;22765;-75
2023/07/20 01:22:22;;;;;;;7.90;3.50;;;;;;;18.67;56.88;99729.51;110443;1263;22318;-76
2023/07/20 01:25:25;;;;;;;;;;;;;;;;;;;;;
2023/07/20 01:28:33;;;;;;;8.80;3.90;;;;;;;18.48;57.74;99726.30;110012;1268;22072;-76
2023/07/20 01:31:27;;;;;;;7.70;3.60;;;;;;;18.39;58.39;99720.81;109959;1268;23006;-76
2023/07/20 01:34:03;;;;;;;6.10;3.60;;;;;;;18.36;58.87;99717.85;110119;1268;23745;-77
2023/07/20 01:36:39;;;;;;;6.40;3.90;;;;;;;18.39;59.28;99725.05;109411;1273;21992;-77
2023/07/20 01:39:22;;;;;;;7.30;4.20;;;;;;;18.40;59.66;99733.96;108972;1277;23605;-76
2023/07/20 01:41:56;;;;;;;6.20;3.80;;;;;;;18.32;59.95;99729.66;108841;1277;23630;-75
2023/07/20 01:44:29;;;;;;;6.70;3.40;;;;;;;18.34;60.07;99737.77;109039;1273;24307;-78
2023/07/20 01:47:01;;;;;;;8.30;3.10;;;;;;;18.40;60.41;99746.31;109181;1273;24335;-76
2023/07/20 01:49:37;;;;;;;7.30;3.70;;;;;;;18.51;60.78;99765.83;109353;1273;22443;-77
2023/07/20 01:52:10;;;;;;;7.30;3.40;;;;;;;18.56;61.03;99776.38;108825;1277;22050;-75
2023/07/20 01:54:46;;;;;;;7.20;4.00;;;;;;;18.54;61.20;99777.59;108985;1274;22073;-76
2023/07/20 01:57:18;;;;;;;6.00;3.80;;;;;;;18.55;61.29;99779.08;109465;1270;22160;-75
2023/07/20 01:59:52;;;;;;;7.70;3.50;;;;;;;18.59;61.28;99787.10;109940;1270;21947;-75
2023/07/20 02:02:27;;;;;;;7.60;4.60;;;;;;;18.54;61.53;99780.08;110223;1262;23088;-76
2023/07/20 02:05:00;;;;;;;6.60;3.80;;;;;;;18.53;61.56;99779.42;110588;1259;21997;-76
2023/07/20 02:07:39;;;;;;;6.00;3.40;;;;;;;18.52;61.81;99791.10;110415;1256;23058;-76
2023/07/20 02:10:13;;;;;;;6.60;3.60;;;;;;;18.53;62.04;99803.91;110728;1255;22164;-76
2023/07/20 02:12:44;;;;;;;6.80;3.60;;;;;;;18.50;62.29;99799.55;110900;1255;21957;-77
2023/07/20 02:15:16;;;;;;;5.10;4.40;;;;;;;18.47;62.52;99796.63;111065;1255;21973;-76
2023/07/20 02:17:49;;;;;;;7.50;5.30;;;;;;;18.46;62.76;99793.74;110848;1255;21965;-76
2023/07/20 02:20:22;;;;;;;10.10;7.60;;;;;;;18.44;62.97;99789.49;111062;1255;23775;-78
2023/07/20 02:22:52;;;;;;;6.90;5.70;;;;;;;18.41;63.05;99785.48;111313;1254;21981;-77
2023/07/20 02:25:23;;;;;;;7.40;6.10;;;;;;;18.37;63.01;99783.36;111107;1255;21960;-78
2023/07/20 02:28:01;;;;;;;8.00;4.90;;;;;;;18.30;62.92;99782.11;110440;1261;23034;-76
2023/07/20 02:30:34;;;;;;;7.40;4.40;;;;;;;18.26;63.00;99777.52;110519;1261;24372;-76
2023/07/20 02:33:09;;;;;;;11.80;7.80;;;;;;;18.24;63.00;99771.91;110510;1261;22492;-76
2023/07/20 02:35:40;;;;;;;6.70;5.20;;;;;;;18.20;62.94;99762.65;110270;1266;23712;-77
2023/07/20 02:38:12;;;;;;;13.30;6.30;;;;;;;18.08;62.87;99749.84;109845;1266;21976;-77
2023/07/20 02:40:52;;;;;;;12.90;4.80;;;;;;;18.03;62.99;99750.23;110121;1266;21992;-76
2023/07/20 02:43:29;;;;;;;15.70;8.50;;;;;;;18.07;63.13;99761.36;109913;1261;21973;-78
2023/07/20 02:46:07;;;;;;;7.20;4.20;;;;;;;18.06;63.01;99765.68;110282;1261;22078;-75
2023/07/20 02:48:41;;;;;;;11.10;7.50;;;;;;;18.01;62.96;99759.43;110640;1260;22000;-75
2023/07/20 02:51:21;;;;;;;9.20;5.80;;;;;;;18.07;62.88;99767.42;110656;1260;22004;-77
2023/07/20 02:53:52;;;;;;;8.50;5.30;;;;;;;18.07;62.76;99768.48;110147;1261;22122;-76
2023/07/20 02:56:30;;;;;;;7.10;5.00;;;;;;;18.04;62.72;99761.84;110675;1261;23120;-77
2023/07/20 02:59:03;;;;;;;9.30;4.40;;;;;;;18.02;62.99;99758.29;110678;1261;21966;-77
2023/07/20 03:01:34;;;;;;;6.40;4.50;;;;;;;18.01;63.19;99755.39;110642;1261;23027;-77
2023/07/20 03:04:07;;;;;;;7.70;4.50;;;;;;;18.00;63.24;99753.53;110642;1260;22020;-77
2023/07/20 03:06:41;;;;;;;6.60;4.90;;;;;;;17.91;63.26;99742.42;110637;1261;23804;-76
2023/07/20 03:09:15;;;;;;;5.30;4.60;;;;;;;17.83;63.15;99735.61;110676;1261;21995;-76
2023/07/20 03:11:53;;;;;;;8.30;4.40;;;;;;;17.86;63.06;99752.84;110780;1256;21961;-80
2023/07/20 03:14:25;;;;;;;7.10;4.30;;;;;;;17.79;63.23;99758.48;111094;1255;21989;-76
2023/07/20 03:16:55;;;;;;;8.00;4.50;;;;;;;17.75;63.33;99767.89;111101;1255;23130;-76
2023/07/20 03:19:30;;;;;;;7.60;4.10;;;;;;;17.74;63.64;99766.03;111142;1255;22109;-76
2023/07/20 03:22:00;;;;;;;7.00;5.30;;;;;;;17.82;63.61;99768.81;111037;1255;21954;-77
2023/07/20 03:24:36;;;;;;;10.90;6.30;;;;;;;17.84;63.36;99768.44;111113;1255;21986;-75
2023/07/20 03:27:09;;;;;;;6.10;5.00;;;;;;;17.87;63.39;99771.55;110995;1256;21963;-75
2023/07/20 03:29:44;;;;;;;7.20;4.90;;;;;;;17.91;63.39;99770.05;111043;1255;23126;-75
2023/07/20 03:32:18;;;;;;;10.60;7.90;;;;;;;17.94;63.40;99772.11;110881;1255;23110;-76
2023/07/20 03:34:56;;;;;;;4.90;4.30;;;;;;;17.95;63.44;99777.63;111011;1255;23107;-76
2023/07/20 03:37:38;;;;;;;10.10;4.70;;;;;;;17.95;63.41;99783.11;111027;1255;23040;-76
2023/07/20 03:40:14;;;;;;;6.00;4.90;;;;;;;17.94;63.29;99781.77;110521;1261;21979;-77
2023/07/20 03:42:47;;;;;;;9.70;5.10;;;;;;;17.96;63.10;99785.49;110634;1260;22745;-77
2023/07/20 03:45:23;;;;;;;5.00;4.50;;;;;;;17.94;62.90;99788.62;110511;1260;23020;-76
2023/07/20 03:48:00;;;;;;;9.50;5.90;;;;;;;17.91;63.03;99787.64;110618;1261;23109;-76
2023/07/20 03:50:32;;;;;;;8.50;4.30;;;;;;;17.87;62.97;99789.33;110697;1260;21993;-77
2023/07/20 03:53:04;;;;;;;10.10;5.40;;;;;;;17.87;63.11;99797.44;110637;1260;23027;-78
2023/07/20 03:55:50;;;;;;;9.70;7.30;;;;;;;17.88;63.30;99802.11;110847;1261;21972;-76
2023/07/20 03:58:23;;;;;;;8.40;7.50;;;;;;;17.90;63.31;99803.38;110964;1255;21957;-77
2023/07/20 04:00:55;;;;;;;10.70;7.90;;;;;;;17.94;63.31;99801.64;110878;1250;22340;-78
2023/07/20 04:03:27;;;;;;;7.90;6.50;;;;;;;17.97;63.21;99802.86;111003;1255;22703;-76
2023/07/20 04:05:58;;;;;;;13.80;5.60;;;;;;;17.99;63.11;99807.80;111121;1255;23580;-75
2023/07/20 04:08:35;;;;;;;8.40;4.50;;;;;;;17.99;63.19;99809.25;111175;1254;23612;-77
2023/07/20 04:11:08;;;;;;;8.80;4.80;;;;;;;17.98;63.17;99817.60;110663;1263;22695;-75
2023/07/20 04:13:38;;;;;;;9.10;5.10;;;;;;;17.93;63.10;99808.27;109999;1267;22003;-75
2023/07/20 04:16:20;;;;;;;4.80;4.20;;;;;;;17.93;63.33;99810.85;109582;1269;21974;-75
2023/07/20 04:19:03;;;;;;;9.90;6.40;;;;;;;17.95;63.63;99816.87;109935;1270;24198;-77
2023/07/20 04:21:43;;;;;;;8.10;4.80;;;;;;;17.97;63.95;99815.86;109433;1270;21993;-80
2023/07/20 04:24:15;;;;;;;6.90;4.90;;;;;;;17.97;64.10;99815.48;110167;1269;21972;-76
2023/07/20 04:26:55;;;;;;;9.90;5.90;;;;;;;17.93;64.14;99809.51;110349;1270;23627;-78
2023/07/20 04:29:28;;;;;;;5.90;4.70;;;;;;;17.95;64.05;99811.95;109844;1270;21989;-77
2023/07/20 04:32:02;;;;;;;11.30;4.90;;;;;;;17.97;64.43;99802.00;109720;1266;21986;-78
2023/07/20 04:34:37;;;;;;;9.60;4.90;;;;;;;18.01;64.70;99799.93;110339;1262;21983;-77
2023/07/20 04:37:16;;;;;;;6.90;4.90;;;;;;;18.02;64.60;99798.59;111060;1255;23895;-76
2023/07/20 04:39:48;;;;;;;7.40;4.80;;;;;;;17.96;64.47;99791.34;111153;1255;23013;-78
2023/07/20 04:42:27;;;;;;;8.50;5.40;;;;;;;17.95;64.56;99792.41;110914;1243;22016;-77
2023/07/20 04:45:08;;;;;;;9.90;6.20;;;;;;;17.90;64.65;99784.21;111106;1254;21962;-76
2023/07/20 04:47:42;;;;;;;8.20;6.00;;;;;;;17.89;64.76;99783.39;111091;1255;22424;-76
2023/07/20 04:50:18;;;;;;;7.60;5.80;;;;;;;17.95;64.84;99794.38;111121;1255;23014;-78
2023/07/20 04:53:02;;;;;;;9.70;6.20;;;;;;;17.98;64.81;99796.45;110553;1259;21986;-76
2023/07/20 04:55:38;;;;;;;8.50;5.80;;;;;;;17.99;64.80;99795.46;110774;1256;22414;-76
2023/07/20 04:58:12;;;;;;;11.30;5.60;;;;;;;18.04;64.90;99800.71;110766;1260;23003;-79
2023/07/20 05:00:43;;;;;;;8.50;6.00;;;;;;;18.09;64.63;99802.79;110683;1260;22038;-76
2023/07/20 05:03:21;;;;;;;7.60;5.10;;;;;;;18.12;64.65;99802.23;110523;1256;21993;-75
2023/07/20 05:06:03;;;;;;;7.70;5.80;;;;;;;18.08;64.56;99784.42;110702;1260;21967;-76
2023/07/20 05:08:36;;;;;;;6.20;5.50;;;;;;;18.19;64.64;99794.45;110740;1260;24472;-77
2023/07/20 05:11:16;;;;;;;11.70;10.30;;;;;;;18.29;64.76;99795.08;110821;1255;23647;-76
2023/07/20 05:13:47;;;;;;;13.70;9.50;;;;;;;18.38;64.35;99795.05;110981;1255;21957;-74
2023/07/20 05:16:40;;;;;;;15.20;9.00;;;;;;;18.44;64.20;99793.05;111150;1255;23621;-75
2023/07/20 05:19:28;;;;;;;13.20;8.30;;;;;;;18.52;64.14;99799.41;110961;1255;21959;-75
2023/07/20 05:22:43;;;;;;;12.90;8.20;;;;;;;18.57;63.57;99801.35;110560;1262;21984;-75
2023/07/20 05:25:58;;;;;;;8.60;6.70;;;;;;;18.59;63.56;99799.41;110344;1265;22987;-76
2023/07/20 05:28:33;;;;;;;9.60;6.60;;;;;;;18.68;63.42;99799.14;110228;1265;23084;-75
2023/07/20 05:31:26;;;;;;;8.90;7.10;;;;;;;18.77;63.36;99800.11;110325;1265;22192;-75
2023/07/20 05:37:30;;;;;;;7.50;5.60;;;;;;;18.85;62.65;99801.75;109572;1272;21974;-76
2023/07/20 05:40:00;;;;;;;6.30;5.70;;;;;;;18.97;62.53;99803.61;109551;1266;23617;-75
2023/07/20 05:42:34;;;;;;;8.30;5.60;;;;;;;19.16;63.10;99803.98;110105;1265;23665;-75
2023/07/20 05:45:10;;;;;;;7.70;5.60;;;;;;;19.62;64.12;99802.41;110453;1264;21989;-74
2023/07/20 05:47:42;;;;;;;8.10;6.50;;;;;;;20.22;63.08;99805.64;109317;1273;23600;-76
2023/07/20 05:50:15;;;;;;;;;;;;;;;20.54;60.76;99801.27;109365;1273;22898;-76
2023/07/20 05:52:57;;;;;;;7.60;6.00;;;;;;;20.70;59.41;99806.82;109388;1273;21968;-74
2023/07/20 05:55:36;;;;;;;8.00;6.40;;;;;;;20.84;58.08;99822.19;109347;1273;21994;-75
2023/07/20 05:58:12;;;;;;;10.10;6.60;;;;;;;20.79;57.59;99811.45;109404;1273;23559;-74
2023/07/20 06:00:53;;;;;;;8.10;5.90;;;;;;;20.92;57.74;99816.73;109188;1273;21986;-76
2023/07/20 06:03:29;;;;;;;8.80;5.50;;;;;;;21.06;57.73;99824.61;109346;1273;23553;-75
2023/07/20 06:06:09;;;;;;;10.80;5.80;;;;;;;21.09;57.26;99823.64;109167;1273;23116;-75
2023/07/20 06:08:43;;;;;;;10.70;5.60;;;;;;;21.22;56.89;99832.36;109110;1261;22870;-76
2023/07/20 06:11:18;;;;;;;8.90;4.80;;;;;;;21.22;56.73;99828.70;109421;1273;21982;-76
2023/07/20 06:13:47;;;;;;;8.30;5.30;;;;;;;21.20;56.62;99829.04;110207;1259;23087;-76
2023/07/20 06:16:17;;;;;;;6.90;5.30;;;;;;;21.21;56.74;99832.31;110867;1259;23104;-74
2023/07/20 06:18:47;;;;;;;7.30;4.90;;;;;;;21.19;56.59;99836.23;110646;1259;22038;-76
2023/07/20 06:21:19;;;;;;;11.00;5.20;;;;;;;21.18;56.88;99839.13;110683;1254;23056;-75
2023/07/20 06:23:50;;;;;;;6.80;5.00;;;;;;;21.16;57.02;99844.79;110168;1265;23145;-76
2023/07/20 06:26:24;;;;;;;7.80;5.20;;;;;;;21.18;57.42;99850.13;110595;1260;23534;-75
2023/07/20 06:28:57;;;;;;;6.30;4.70;;;;;;;21.28;57.60;99854.70;110703;1260;21970;-75
2023/07/20 06:31:30;;;;;;;7.60;4.90;;;;;;;21.34;57.52;99850.05;110650;1260;22875;-74
2023/07/20 06:34:03;;;;;;;6.70;4.10;;;;;;;21.50;57.48;99862.63;110647;1260;23020;-77
2023/07/20 06:36:39;;;;;;;6.20;5.00;;;;;;;21.57;57.24;99860.04;110653;1257;22881;-76
2023/07/20 06:39:18;;;;;;;7.70;4.00;;;;;;;21.63;56.75;99862.86;110194;1260;21971;-76
2023/07/20 06:42:03;;;;;;;6.50;4.30;;;;;;;21.68;56.66;99868.77;110708;1255;21954;-76
2023/07/20 06:44:39;;;;;;;5.60;4.30;;;;;;;21.66;56.63;99868.60;111177;1255;21942;-77
2023/07/20 06:47:22;;;;;;;10.30;4.40;;;;;;;21.67;56.70;99874.04;111117;1255;24398;-76
2023/07/20 06:50:02;;;;;;;8.20;4.70;;;;;;;21.71;56.72;99879.27;111153;1255;23697;-78
2023/07/20 06:52:32;;;;;;;8.70;4.90;;;;;;;21.75;56.57;99876.10;111166;1255;21974;-75
2023/07/20 06:55:17;;;;;;;5.90;4.70;;;;;;;21.82;56.34;99881.95;110997;1255;24336;-75
2023/07/20 06:58:12;;;;;;;5.70;3.70;;;;;;;21.82;55.88;99889.05;111103;1249;22193;-79
2023/07/20 07:00:45;;;;;;;7.50;3.90;;;;;;;21.76;55.55;99885.92;111091;1254;22343;-76
2023/07/20 07:03:29;;;;;;;5.70;4.30;;;;;;;21.66;55.30;99892.04;111151;1254;22126;-77
2023/07/20 07:06:16;;;;;;;10.30;4.50;;;;;;;21.49;55.38;99889.23;110804;1255;23576;-76
2023/07/20 07:09:13;;;;;;;6.80;4.50;;;;;;;21.37;55.65;99885.21;111445;1248;23753;-77
2023/07/20 07:11:47;;;;;;;8.20;4.50;;;;;;;21.29;55.93;99885.90;111186;1254;21962;-77
2023/07/20 07:14:25;;;;;;;8.00;4.60;;;;;;;21.27;56.05;99890.67;111140;1255;21972;-78
2023/07/20 07:17:02;;;;;;;11.10;5.30;;;;;;;21.20;55.94;99892.73;110928;1254;329569;-76
2023/07/20 07:19:38;;;;;;;10.60;4.70;;;;;;;21.21;56.49;99893.52;111447;1242;21924;-75
2023/07/20 07:22:14;;;;;;;7.10;4.70;;;;;;;21.26;56.52;99893.21;111344;1255;23680;-79
2023/07/20 07:24:45;;;;;;;9.90;4.20;;;;;;;21.31;56.48;99894.25;111065;1255;23658;-77
2023/07/20 07:27:23;;;;;;;5.70;4.50;;;;;;;21.36;56.51;99890.77;111002;1255;22904;-75
2023/07/20 07:30:04;;;;;;;6.60;4.80;;;;;;;21.47;56.73;99897.09;111177;1255;23778;-76
2023/07/20 07:32:34;;;;;;;5.90;3.90;;;;;;;21.60;56.66;99894.83;111190;1255;22422;-75
2023/07/20 07:35:05;;;;;;;9.80;5.30;;;;;;;21.78;56.97;99893.23;111173;1255;23793;-75
2023/07/20 07:37:37;;;;;;;6.20;4.10;;;;;;;22.14;57.36;99895.55;111079;1255;22372;-78
2023/07/20 07:40:28;;;;;;;7.00;4.20;;;;;;;22.76;56.80;99893.41;111359;1255;23695;-78
2023/07/20 07:43:07;;;;;;;9.40;4.00;;;;;;;23.31;54.32;99892.54;111478;1254;22007;-81
2023/07/20 07:45:40;;;;;;;4.80;3.20;;;;;;;23.66;51.96;99893.00;111018;1254;24352;-81
2023/07/20 07:48:17;;;;;;;8.30;4.10;;;;;;;23.83;50.27;99887.50;111248;1255;23615;-79
2023/07/20 07:50:51;;;;;;;5.40;3.00;;;;;;;23.89;49.55;99885.65;111029;1255;21951;-78
2023/07/20 07:53:25;;;;;;;4.40;2.90;;;;;;;23.98;49.21;99885.31;110797;1261;23093;-80
2023/07/20 07:55:58;;;;;;;5.90;3.40;;;;;;;23.93;48.16;99881.98;110725;1260;23042;-78
2023/07/20 07:58:33;;;;;;;3.90;2.80;;;;;;;23.81;48.13;99885.61;110725;1260;21958;-77
2023/07/20 08:01:06;;;;;;;;;;;;;;;23.75;47.93;99892.41;110760;1260;23222;-79
2023/07/20 08:03:42;;;;;;;5.50;3.00;;;;;;;23.30;47.45;99883.18;110746;1260;23733;-77
2023/07/20 08:06:21;;;;;;;5.50;3.20;;;;;;;23.01;47.76;99890.08;110268;1264;23053;-76
2023/07/20 08:09:10;;;;;;;5.90;3.00;;;;;;;22.77;48.41;99891.66;109483;1272;22638;-78
2023/07/20 08:11:53;;;;;;;5.30;2.90;;;;;;;22.60;48.74;99892.77;109133;1271;23183;-82
2023/07/20 08:14:27;;;;;;;3.70;2.50;;;;;;;22.47;48.84;99892.61;109685;1271;21978;-82
2023/07/20 08:17:02;;;;;;;5.20;2.70;;;;;;;22.37;49.40;99891.23;109710;1272;21981;-80
2023/07/20 08:19:41;;;;;;;3.30;1.80;;;;;;;22.53;50.23;99895.73;109899;1271;22065;-83
2023/07/20 08:22:12;;;;;;;3.80;2.10;;;;;;;22.76;50.39;99894.41;109712;1271;22212;-81
2023/07/20 08:24:43;;;;;;;294.20;36.10;;;;;;;23.05;50.77;99885.08;109712;1271;22485;-81
2023/07/20 08:27:20;;;;;;;10.70;2.90;;;;;;;23.55;50.21;99895.13;110220;1268;22987;-82
2023/07/20 08:29:51;;;;;;;3.10;2.00;;;;;;;23.91;49.36;99881.61;110521;1260;23621;-85
2023/07/20 08:32:29;;;;;;;6.40;2.10;;;;;;;24.19;47.86;99881.63;111590;1255;21990;-78
2023/07/20 08:35:00;;;;;;;7.60;2.20;;;;;;;24.39;47.93;99890.59;111210;1248;21987;-80
2023/07/20 08:37:31;;;;;;;3.40;1.70;;;;;;;24.60;47.31;99888.35;111756;1255;23508;-81
2023/07/20 08:40:05;;;;;;;5.20;2.20;;;;;;;24.61;46.60;99890.40;111053;1260;21998;-80
2023/07/20 08:42:42;;;;;;;2.50;1.90;;;;;;;24.45;46.34;99887.14;110987;1260;24293;-81
2023/07/20 08:45:25;;;;;;;;;;;;;;;24.63;47.68;99887.06;110656;1262;23126;-83
2023/07/20 08:48:12;;;;;;;7.20;1.60;;;;;;;25.15;47.79;99886.91;110026;1270;21998;-82
2023/07/20 08:50:57;;;;;;;3.20;1.90;;;;;;;25.54;45.54;99892.25;109742;1270;21999;-82
2023/07/20 08:53:30;;;;;;;1.90;1.40;;;;;;;25.41;43.96;99892.52;109959;1270;22058;-83
2023/07/20 08:56:10;;;;;;;5.10;1.30;;;;;;;25.22;44.65;99893.27;109380;1275;21992;-78
2023/07/20 08:58:45;;;;;;;3.10;1.50;;;;;;;25.41;45.08;99888.58;109194;1280;21998;-79
2023/07/20 09:01:19;;;;;;;3.40;1.60;;;;;;;25.70;44.53;99882.48;108782;1280;22465;-79
2023/07/20 09:03:53;;;;;;;3.30;1.90;;;;;;;26.09;44.11;99882.16;109015;1273;23081;-80
2023/07/20 09:06:27;;;;;;;2.60;1.20;;;;;;;26.51;43.09;99877.77;109444;1270;21984;-80
2023/07/20 09:09:18;;;;;;;4.10;1.50;;;;;;;26.90;42.67;99868.55;109827;1270;21981;-79
2023/07/20 09:12:00;;;;;;;5.20;1.70;;;;;;;27.30;40.53;99882.42;109616;1270;23012;-80
2023/07/20 09:14:45;;;;;;;2.60;1.10;;;;;;;27.30;39.95;99885.98;110198;1265;21966;-82
2023/07/20 09:17:26;;;;;;;2.80;1.30;;;;;;;27.37;40.30;99876.75;110722;1255;21960;-82
2023/07/20 09:20:13;;;;;;;2.90;1.20;;;;;;;27.66;39.64;99877.57;111358;1254;21978;-80
2023/07/20 09:22:57;;;;;;;2.60;1.20;;;;;;;27.90;38.91;99876.47;111210;1255;22969;-80
2023/07/20 09:25:51;;;;;;;2.80;1.40;;;;;;;28.15;37.76;99876.89;111279;1255;21972;-82
2023/07/20 09:28:24;;;;;;;1.40;0.90;;;;;;;28.16;36.37;99879.16;111311;1255;21959;-81
2023/07/20 09:31:32;;;;;;;3.30;1.50;;;;;;;27.90;36.69;99873.11;111407;1249;21975;-81
2023/07/20 09:34:25;;;;;;;3.60;1.00;;;;;;;27.93;37.26;99875.52;111336;1255;23048;-81
2023/07/20 09:37:44;;;;;;;4.20;1.20;;;;;;;27.91;36.54;99869.98;111332;1255;21963;-80
2023/07/20 09:41:01;;;;;;;3.80;1.30;;;;;;;27.58;36.48;99871.79;111193;1255;22026;-81
2023/07/20 09:44:41;;;;;;;3.20;1.30;;;;;;;27.04;36.61;99861.52;111407;1255;23015;-81
2023/07/20 09:47:25;;;;;;;2.80;1.40;;;;;;;26.48;37.25;99861.92;111345;1255;21986;-80
2023/07/20 09:50:50;;;;;;;2.60;1.40;;;;;;;25.99;38.52;99865.79;110777;1262;22001;-83
2023/07/20 09:54:06;;;;;;;3.80;2.00;;;;;;;25.52;39.96;99863.23;110594;1267;21980;-83
2023/07/20 09:56:48;;;;;;;3.50;1.80;;;;;;;25.33;40.67;99860.80;110370;1266;22040;-84
2023/07/20 09:59:59;;;;;;;4.80;2.90;;;;;;;25.25;41.31;99860.78;109863;1272;22949;-82
2023/07/20 10:02:55;;;;;;;3.90;1.40;;;;;;;25.17;40.98;99868.92;109761;1272;21986;-85
2023/07/20 10:11:09;;;;;;;4.50;2.20;;;;;;;24.34;42.84;99870.80;109379;1278;23757;-84
2023/07/20 10:14:40;;;;;;;5.90;2.30;;;;;;;24.01;43.93;99867.78;108760;1284;22016;-86
2023/07/20 10:18:21;;;;;;;9.60;2.40;;;;;;;24.08;45.09;99873.29;108456;1289;22882;-87
2023/07/20 10:20:54;;;;;;;6.70;2.30;;;;;;;24.50;45.84;99859.36;107739;1295;22726;-85
2023/07/20 10:23:27;;;;;;;10.90;2.20;;;;;;;24.86;44.96;99854.55;107689;1294;23168;-85
2023/07/20 10:25:59;;;;;;;3.20;2.30;;;;;;;25.12;44.44;99847.70;108362;1290;22017;-86
2023/07/20 10:28:29;;;;;;;8.20;2.50;;;;;;;25.56;44.15;99841.06;108656;1286;22469;-85
2023/07/20 10:30:57;;;;;;;4.40;1.90;;;;;;;25.98;42.78;99840.77;108803;1284;23074;-85
2023/07/20 10:33:44;;;;;;;2.90;1.70;;;;;;;26.13;41.00;99850.33;108866;1284;24554;-83
2023/07/20 10:36:29;;;;;;;5.90;3.60;;;;;;;26.03;40.14;99848.81;109059;1284;24945;-85
2023/07/20 10:39:50;;;;;;;5.00;2.70;;;;;;;25.84;40.06;99844.29;108891;1284;22019;-85
2023/07/20 10:42:34;;;;;;;5.10;2.90;;;;;;;25.65;40.25;99847.37;109146;1281;23647;-83
2023/07/20 10:45:08;;;;;;;7.80;1.80;;;;;;;25.47;40.44;99844.70;109944;1269;23071;-87
2023/07/20 10:47:49;;;;;;;3.40;1.70;;;;;;;25.49;41.18;99846.97;110588;1268;22386;-85
2023/07/20 10:50:23;;;;;;;4.00;2.10;;;;;;;25.62;41.08;99841.15;110520;1268;23716;-87
2023/07/20 10:53:15;;;;;;;5.70;2.00;;;;;;;25.72;40.63;99830.52;110502;1268;21987;-84
2023/07/20 10:56:13;;;;;;;2.50;1.00;;;;;;;25.75;40.38;99834.76;111021;1263;21985;-87
2023/07/20 10:58:56;;;;;;;2.50;1.20;;;;;;;25.71;39.94;99832.09;111572;1255;23017;-85
2023/07/20 11:01:45;;;;;;;3.50;0.90;;;;;;;25.77;39.55;99828.38;111133;1260;22307;-87
2023/07/20 11:04:39;;;;;;;6.30;1.30;;;;;;;25.67;38.90;99823.08;111130;1260;21961;-86
2023/07/20 11:07:43;;;;;;;7.40;1.50;;;;;;;25.60;39.16;99825.48;110477;1267;21983;-85
2023/07/20 11:10:15;;;;;;;6.50;2.00;;;;;;;25.60;39.23;99833.13;110232;1267;21989;-84
2023/07/20 11:13:22;;;;;;;3.10;1.50;;;;;;;25.50;39.19;99832.30;110553;1266;23610;-84
2023/07/20 11:15:59;;;;;;;2.00;0.80;;;;;;;25.33;39.30;99831.48;110628;1266;23786;-86
2023/07/20 11:18:40;;;;;;;5.20;0.90;;;;;;;25.24;39.14;99835.26;110173;1270;25649;-84
2023/07/20 11:21:11;;;;;;;1.80;0.90;;;;;;;25.15;39.23;99827.13;109940;1271;22016;-85
2023/07/20 11:23:52;;;;;;;2.30;1.10;;;;;;;25.18;38.91;99830.67;109618;1275;21987;-86
2023/07/20 11:26:43;;;;;;;2.70;0.90;;;;;;;25.21;38.85;99828.77;110269;1268;23832;-84
2023/07/20 11:29:45;;;;;;;3.90;1.20;;;;;;;25.19;39.10;99813.34;110459;1268;21998;-80
2023/07/20 11:32:25;;;;;;;2.80;1.20;;;;;;;25.31;39.05;99819.77;110085;1268;24349;-81
2023/07/20 11:35:16;;;;;;;11.70;1.50;;;;;;;25.40;38.90;99832.77;110077;1268;23605;-81
2023/07/20 11:38:07;;;;;;;1.60;1.00;;;;;;;25.45;38.66;99833.01;110667;1265;22724;-80
2023/07/20 11:40:48;;;;;;;7.70;1.60;;;;;;;25.45;38.30;99838.63;110815;1260;22044;-85
2023/07/20 11:43:24;;;;;;;5.40;1.70;;;;;;;25.33;37.75;99854.41;111224;1255;21958;-83
2023/07/20 11:45:57;;;;;;;15.80;1.90;;;;;;;25.12;38.36;99859.98;111139;1260;22783;-82
2023/07/20 11:48:29;;;;;;;8.30;2.20;;;;;;;24.90;39.03;99866.75;111164;1260;22797;-81
2023/07/20 11:51:02;;;;;;;5.80;1.60;;;;;;;24.64;40.09;99873.23;111122;1260;22460;-82
2023/07/20 11:54:00;;;;;;;3.40;1.90;;;;;;;24.47;41.07;99873.59;111106;1258;21961;-84
2023/07/20 11:57:19;;;;;;;4.00;1.30;;;;;;;24.25;41.47;99871.78;110516;1266;21971;-83
2023/07/20 12:00:11;;;;;;;3.40;1.60;;;;;;;24.07;41.82;99866.48;110121;1266;21993;-84
2023/07/20 12:02:54;;;;;;;6.00;1.90;;;;;;;23.97;42.31;99868.71;109813;1268;23032;-82
2023/07/20 12:05:26;;;;;;;5.40;1.50;;;;;;;23.97;42.28;99874.38;110304;1266;21976;-84
2023/07/20 12:08:02;;;;;;;5.40;2.40;;;;;;;23.91;42.39;99879.33;109494;1275;21982;-82
2023/07/20 12:10:51;;;;;;;7.50;1.40;;;;;;;23.81;42.80;99882.74;109664;1274;21995;-84
2023/07/20 12:13:42;;;;;;;5.80;1.40;;;;;;;23.76;42.93;99879.30;109360;1278;22144;-86
2023/07/20 12:16:16;;;;;;;2.30;1.10;;;;;;;23.64;42.90;99880.00;109371;1279;23381;-82
2023/07/20 12:19:29;;;;;;;3.80;1.60;;;;;;;23.58;42.79;99879.15;109180;1280;22978;-82
2023/07/20 12:22:22;;;;;;;2.40;1.60;;;;;;;23.45;42.55;99881.70;108761;1285;22411;-83
2023/07/20 12:25:19;;;;;;;3.50;1.80;;;;;;;23.41;43.09;99878.23;108755;1283;22012;-84
2023/07/20 12:28:02;;;;;;;2.70;1.50;;;;;;;23.41;43.63;99874.81;109122;1278;23673;-82
2023/07/20 12:31:21;;;;;;;;;;;;;;;;;;;;;
2023/07/20 12:34:08;;;;;;;2.40;1.50;;;;;;;23.47;44.14;99877.83;109541;1272;21996;-84
2023/07/20 12:40:43;;;;;;;11.10;1.80;;;;;;;23.44;44.09;99869.23;109493;1273;21997;-83
2023/07/20 12:44:00;;;;;;;5.80;1.80;;;;;;;23.46;44.09;99881.27;109842;1271;23047;-81